Torbay, Canada
Current Conditions -  °F | °C
As of 7:00 PM on Thursday 23 Oct 2014 (Local Time) from CYYT Reporting Station
Broken Clouds Broken Clouds  
Wind Chill: 41°   Ceiling: 1200
Heat Index: 46°   Visibility: 15mi
Dew Point: 43°   Wind: 10mph
Humidity: 87%   Direction: 110°ESE
Pressure: 30.26"   Gusts: NA
Location:  47.66°N, 52.73°W
Report Text: CYYT 232100Z 11009KT 15SM BKN012 08/06 A3026 RMK SC7 SLP252
Loading
Personal Weather Stations






























Interactive Weather Map
Tropical Storm Tracking
New forecast layout! Learn more

10-Day Weather Forecast

Advertisements
Track Severe Weather on mobile